createdAt,value
2023-05-24T00:02:08.652Z,100.00
2023-05-24T00:04:35.225Z,100.00
2023-05-24T00:07:04.792Z,100.00
2023-05-24T00:09:31.450Z,100.00
2023-05-24T00:11:58.610Z,100.00
2023-05-24T00:14:25.684Z,100.00
2023-05-24T00:16:52.274Z,100.00
2023-05-24T00:19:19.004Z,100.00
2023-05-24T00:21:46.028Z,100.00
2023-05-24T00:24:12.903Z,100.00
2023-05-24T00:26:40.127Z,100.00
2023-05-24T00:29:06.672Z,100.00
2023-05-24T00:31:33.285Z,100.00
2023-05-24T00:34:00.052Z,100.00
2023-05-24T00:36:26.595Z,100.00
2023-05-24T00:38:53.690Z,100.00
2023-05-24T00:41:20.407Z,100.00
2023-05-24T00:43:47.115Z,100.00
2023-05-24T00:46:29.309Z,99.33
2023-05-24T00:48:56.973Z,100.00
2023-05-24T00:51:27.349Z,99.27
2023-05-24T00:53:54.966Z,100.00
2023-05-24T00:56:21.771Z,100.00
2023-05-24T00:58:50.432Z,100.00
2023-05-24T01:01:17.071Z,100.00
2023-05-24T01:03:46.239Z,100.00
2023-05-24T01:06:13.535Z,100.00
2023-05-24T01:08:40.201Z,100.00
2023-05-24T01:11:26.469Z,100.00
2023-05-24T01:14:26.570Z,100.00
2023-05-24T01:17:04.947Z,100.00
2023-05-24T01:19:56.436Z,98.79
2023-05-24T01:22:38.225Z,98.09
2023-05-24T01:25:10.942Z,98.83
2023-05-24T01:27:38.418Z,97.97
2023-05-24T01:30:06.499Z,96.81
2023-05-24T01:32:33.425Z,96.55
2023-05-24T01:34:59.988Z,97.56
2023-05-24T01:37:26.557Z,96.59
2023-05-24T01:39:53.551Z,97.11
2023-05-24T01:43:12.468Z,97.97
2023-05-24T01:45:48.477Z,98.37
2023-05-24T01:48:44.171Z,97.99
2023-05-24T01:51:15.798Z,98.34
2023-05-24T01:53:47.428Z,96.95
2023-05-24T01:56:17.201Z,96.95
2023-05-24T01:58:45.602Z,96.56
2023-05-24T02:01:14.220Z,96.22
2023-05-24T02:03:41.269Z,95.58
2023-05-24T02:06:08.354Z,96.12
2023-05-24T02:08:35.314Z,96.54
2023-05-24T02:11:02.646Z,94.73
2023-05-24T02:13:29.298Z,95.49
2023-05-24T02:15:55.897Z,95.78
2023-05-24T02:18:25.314Z,95.50
2023-05-24T02:20:51.855Z,95.86
2023-05-24T02:23:18.527Z,95.69
2023-05-24T02:25:45.019Z,97.16
2023-05-24T02:28:11.558Z,96.94
2023-05-24T02:30:38.628Z,96.79
2023-05-24T02:33:05.596Z,95.50
2023-05-24T02:35:33.563Z,95.54
2023-05-24T02:38:01.580Z,95.01
2023-05-24T02:40:28.182Z,94.92
2023-05-24T02:42:54.713Z,94.98
2023-05-24T02:45:21.309Z,95.86
2023-05-24T02:47:47.948Z,93.28
2023-05-24T02:50:14.510Z,93.54
2023-05-24T02:52:41.149Z,91.99
2023-05-24T02:55:08.517Z,92.75
2023-05-24T02:57:35.549Z,92.93
2023-05-24T03:00:02.139Z,90.67
2023-05-24T03:02:29.843Z,92.83
2023-05-24T03:04:56.914Z,90.65
2023-05-24T03:07:23.451Z,91.11
2023-05-24T03:09:49.985Z,90.79
2023-05-24T03:12:16.494Z,90.56
2023-05-24T03:14:43.003Z,89.50
2023-05-24T03:17:09.565Z,89.38
2023-05-24T03:19:37.358Z,87.47
2023-05-24T03:22:03.936Z,87.93
2023-05-24T03:24:30.429Z,88.25
2023-05-24T03:26:57.082Z,88.01
2023-05-24T03:29:23.713Z,88.16
2023-05-24T03:31:52.361Z,87.83
2023-05-24T03:34:18.991Z,88.40
2023-05-24T03:36:45.626Z,87.94
2023-05-24T03:39:12.265Z,88.23
2023-05-24T03:41:55.012Z,88.25
2023-05-24T03:44:21.552Z,87.68
2023-05-24T03:46:48.108Z,88.34
2023-05-24T03:49:14.698Z,88.84
2023-05-24T03:51:41.180Z,88.60
2023-05-24T03:54:07.716Z,88.93
2023-05-24T03:56:34.265Z,90.19
2023-05-24T03:59:03.873Z,89.56
2023-05-24T04:01:35.218Z,90.96
2023-05-24T04:04:03.208Z,90.43
2023-05-24T04:06:30.242Z,91.35
2023-05-24T04:09:00.146Z,90.67
2023-05-24T04:11:29.780Z,90.31
2023-05-24T04:13:57.759Z,89.99
2023-05-24T04:16:26.027Z,90.21
2023-05-24T04:18:56.273Z,90.72
2023-05-24T04:21:23.105Z,90.43
2023-05-24T04:23:49.680Z,88.88
2023-05-24T04:26:17.580Z,90.50
2023-05-24T04:28:45.473Z,90.74
2023-05-24T04:31:15.629Z,92.00
2023-05-24T04:33:42.350Z,90.84
2023-05-24T04:36:11.546Z,90.91
2023-05-24T04:38:39.607Z,90.27
2023-05-24T04:41:06.710Z,89.15
2023-05-24T04:43:34.716Z,89.83
2023-05-24T04:46:01.648Z,90.79
2023-05-24T04:48:28.344Z,87.53
2023-05-24T04:50:55.975Z,87.09
2023-05-24T04:53:23.184Z,86.36
2023-05-24T04:55:50.320Z,86.30
2023-05-24T04:58:17.069Z,86.02
2023-05-24T05:00:44.715Z,85.41
2023-05-24T05:03:11.681Z,84.07
2023-05-24T05:05:38.286Z,85.08
2023-05-24T05:08:04.883Z,85.33
2023-05-24T05:10:31.401Z,84.15
2023-05-24T05:12:57.963Z,82.67
2023-05-24T05:15:24.752Z,79.29
2023-05-24T05:17:51.327Z,75.34
2023-05-24T05:20:18.185Z,74.99
2023-05-24T05:22:50.911Z,77.59
2023-05-24T05:25:17.954Z,76.87
2023-05-24T05:27:44.439Z,75.36
2023-05-24T05:30:11.481Z,70.57
2023-05-24T05:32:38.562Z,64.60
2023-05-24T05:35:06.042Z,61.60
2023-05-24T05:37:32.652Z,61.44
2023-05-24T05:39:59.199Z,59.13
2023-05-24T05:42:25.802Z,58.67
2023-05-24T05:44:52.802Z,59.02
2023-05-24T05:47:19.393Z,57.70
2023-05-24T05:49:46.086Z,64.55
2023-05-24T05:52:12.780Z,61.01
2023-05-24T05:54:39.416Z,54.12
2023-05-24T05:57:08.130Z,54.31
2023-05-24T05:59:36.110Z,55.31
2023-05-24T06:02:07.103Z,53.79
2023-05-24T06:04:34.087Z,53.07
2023-05-24T06:07:00.902Z,52.44
2023-05-24T06:09:27.691Z,51.77
2023-05-24T06:11:54.370Z,51.36
2023-05-24T06:14:22.516Z,52.31
2023-05-24T06:16:49.417Z,54.73
2023-05-24T06:19:16.761Z,53.93
2023-05-24T06:21:47.841Z,52.02
2023-05-24T06:24:20.744Z,48.68
2023-05-24T06:26:49.601Z,50.43
2023-05-24T06:29:16.213Z,48.56
2023-05-24T06:31:43.614Z,50.75
2023-05-24T06:34:10.590Z,49.54
2023-05-24T06:36:41.379Z,49.97
2023-05-24T06:39:10.925Z,47.18
2023-05-24T06:41:38.981Z,46.66
2023-05-24T06:44:05.809Z,51.86
2023-05-24T06:46:32.757Z,56.29
2023-05-24T06:48:59.457Z,54.49
2023-05-24T06:51:26.458Z,51.63
2023-05-24T06:53:53.576Z,48.14
2023-05-24T06:56:20.144Z,47.95
2023-05-24T06:58:46.826Z,45.01
2023-05-24T07:01:14.487Z,48.96
2023-05-24T07:03:41.319Z,51.63
2023-05-24T07:06:09.974Z,50.59
2023-05-24T07:08:36.790Z,52.74
2023-05-24T07:11:03.546Z,54.24
2023-05-24T07:13:30.201Z,49.68
2023-05-24T07:15:56.697Z,47.87
2023-05-24T07:18:23.212Z,46.84
2023-05-24T07:20:49.848Z,46.83
2023-05-24T07:23:16.494Z,45.15
2023-05-24T07:25:43.004Z,42.99
2023-05-24T07:28:09.968Z,41.87
2023-05-24T07:30:39.328Z,41.50
2023-05-24T07:33:05.958Z,45.88
2023-05-24T07:35:32.782Z,44.56
2023-05-24T07:37:59.340Z,45.38
2023-05-24T07:40:25.929Z,42.75
2023-05-24T07:42:52.467Z,40.49
2023-05-24T07:45:19.272Z,41.60
2023-05-24T07:47:45.899Z,42.05
2023-05-24T07:50:12.592Z,44.84
2023-05-24T07:52:39.552Z,49.10
2023-05-24T07:55:06.624Z,46.81
2023-05-24T07:57:33.640Z,42.90
2023-05-24T08:00:07.046Z,43.77
2023-05-24T08:02:38.278Z,41.33
2023-05-24T08:05:05.316Z,37.56
2023-05-24T08:07:31.894Z,42.06
2023-05-24T08:09:58.437Z,37.98
2023-05-24T08:12:26.023Z,39.64
2023-05-24T08:14:52.706Z,36.28
2023-05-24T08:17:19.201Z,39.16
2023-05-24T08:19:45.845Z,38.29
2023-05-24T08:22:12.751Z,36.81
2023-05-24T08:24:39.338Z,39.22
2023-05-24T08:27:06.028Z,38.51
2023-05-24T08:29:32.543Z,39.49
2023-05-24T08:32:00.903Z,39.43
2023-05-24T08:34:28.518Z,40.30
2023-05-24T08:36:55.140Z,43.28
2023-05-24T08:39:21.811Z,45.06
2023-05-24T08:42:01.032Z,43.95
2023-05-24T08:44:52.596Z,45.55
2023-05-24T08:47:21.825Z,43.85
2023-05-24T08:49:52.037Z,45.67
2023-05-24T08:52:21.023Z,45.56
2023-05-24T08:54:49.386Z,45.76
2023-05-24T08:57:16.704Z,45.91
2023-05-24T08:59:44.342Z,46.94
2023-05-24T09:02:14.871Z,46.19
2023-05-24T09:04:44.275Z,49.29
2023-05-24T09:07:13.855Z,46.92
2023-05-24T09:09:47.053Z,43.93
2023-05-24T09:12:35.672Z,45.71
2023-05-24T09:15:06.589Z,43.80
2023-05-24T09:17:35.096Z,42.93
2023-05-24T09:20:02.234Z,43.48
2023-05-24T09:22:30.724Z,44.43
2023-05-24T09:25:00.354Z,45.61
2023-05-24T09:27:27.787Z,45.58
2023-05-24T09:29:55.849Z,44.59
2023-05-24T09:32:24.503Z,45.34
2023-05-24T09:34:53.878Z,44.11
2023-05-24T09:37:26.906Z,44.38
2023-05-24T09:39:58.049Z,44.81
2023-05-24T09:42:28.128Z,43.35
2023-05-24T09:45:10.732Z,44.72
2023-05-24T09:47:39.437Z,44.24
2023-05-24T09:50:12.878Z,41.69
2023-05-24T09:52:40.542Z,42.84
2023-05-24T09:55:17.472Z,42.53
2023-05-24T09:57:45.045Z,42.84
2023-05-24T10:00:17.393Z,41.90
2023-05-24T10:02:52.985Z,40.15
2023-05-24T10:05:19.775Z,40.90
2023-05-24T10:07:47.071Z,40.75
2023-05-24T10:10:13.679Z,40.51
2023-05-24T10:12:46.578Z,42.54
2023-05-24T10:15:13.173Z,40.81
2023-05-24T10:17:39.799Z,41.42
2023-05-24T10:20:07.207Z,44.44
2023-05-24T10:22:40.465Z,42.74
2023-05-24T10:25:10.744Z,41.17
2023-05-24T10:27:38.713Z,42.36
2023-05-24T10:30:23.476Z,42.11
2023-05-24T10:32:52.728Z,42.13
2023-05-24T10:35:20.310Z,44.23
2023-05-24T10:37:47.784Z,41.21
2023-05-24T10:40:20.072Z,40.82
2023-05-24T10:42:47.507Z,44.50
2023-05-24T10:45:41.339Z,45.26
2023-05-24T10:48:13.998Z,44.78
2023-05-24T10:50:42.045Z,46.70
2023-05-24T10:53:16.308Z,45.36
2023-05-24T10:55:54.847Z,42.44
2023-05-24T10:58:27.329Z,40.21
2023-05-24T11:00:53.931Z,40.39
2023-05-24T11:03:26.360Z,37.55
2023-05-24T11:05:54.789Z,42.60
2023-05-24T11:08:33.150Z,41.59
2023-05-24T11:13:44.094Z,42.15
2023-05-24T11:16:40.728Z,39.22
2023-05-24T11:19:19.998Z,39.12
2023-05-24T11:21:48.590Z,39.39
2023-05-24T11:24:17.596Z,40.83
2023-05-24T11:26:44.792Z,41.12
2023-05-24T11:29:17.564Z,42.75
2023-05-24T11:31:55.035Z,41.88
2023-05-24T11:34:21.994Z,42.37
2023-05-24T11:36:49.325Z,37.60
2023-05-24T11:39:16.379Z,39.34
2023-05-24T11:41:43.645Z,38.34
2023-05-24T11:44:11.513Z,35.04
2023-05-24T11:46:43.296Z,35.92
2023-05-24T11:49:14.020Z,33.17
2023-05-24T11:51:40.600Z,32.91
2023-05-24T11:54:07.091Z,30.09
2023-05-24T11:56:34.269Z,29.60
2023-05-24T11:59:22.939Z,28.96
2023-05-24T12:01:56.665Z,27.65
2023-05-24T12:04:23.419Z,28.49
2023-05-24T12:06:50.102Z,30.27
2023-05-24T12:09:18.658Z,28.33
2023-05-24T12:11:48.673Z,28.60
2023-05-24T12:14:17.037Z,27.23
2023-05-24T12:16:45.455Z,28.46
2023-05-24T12:19:32.231Z,29.66
2023-05-24T12:22:00.560Z,28.69
2023-05-24T12:24:28.099Z,28.53
2023-05-24T12:27:02.175Z,31.18
2023-05-24T12:29:40.923Z,36.13
2023-05-24T12:32:13.272Z,32.95
2023-05-24T12:34:42.468Z,30.72
2023-05-24T12:37:10.561Z,29.20
2023-05-24T12:39:37.842Z,31.14
2023-05-24T12:42:04.723Z,29.07
2023-05-24T12:44:36.581Z,34.79
2023-05-24T12:47:06.462Z,32.32
2023-05-24T12:49:33.502Z,33.48
2023-05-24T12:52:01.781Z,33.42
2023-05-24T12:54:29.706Z,36.11
2023-05-24T12:56:57.739Z,39.98
2023-05-24T12:59:25.931Z,38.59
2023-05-24T13:01:53.130Z,40.80
2023-05-24T13:04:21.773Z,42.47
2023-05-24T13:06:49.319Z,39.04
2023-05-24T13:09:18.815Z,40.15
2023-05-24T13:11:46.786Z,40.48
2023-05-24T13:14:15.366Z,38.95
2023-05-24T13:16:42.094Z,38.18
2023-05-24T13:19:08.667Z,41.51
2023-05-24T13:21:35.653Z,38.57
2023-05-24T13:24:02.173Z,41.30
2023-05-24T13:26:28.871Z,38.66
2023-05-24T13:31:25.431Z,40.94
2023-05-24T13:33:52.071Z,37.48
2023-05-24T13:36:19.088Z,38.17
2023-05-24T13:38:45.613Z,39.73
2023-05-24T13:41:12.517Z,38.66
2023-05-24T13:43:39.160Z,41.45
2023-05-24T13:46:05.770Z,40.19
2023-05-24T13:48:32.643Z,39.39
2023-05-24T13:50:59.283Z,39.92
2023-05-24T13:53:27.597Z,39.32
2023-05-24T13:55:54.621Z,38.84
2023-05-24T13:58:21.294Z,42.85
2023-05-24T14:00:47.963Z,40.28
2023-05-24T14:03:15.965Z,40.25
2023-05-24T14:05:42.861Z,43.19
2023-05-24T14:08:09.550Z,44.18
2023-05-24T14:10:37.002Z,44.62
2023-05-24T14:15:37.973Z,45.68
2023-05-24T14:18:08.004Z,46.62
2023-05-24T14:20:37.822Z,46.66
2023-05-24T14:23:04.925Z,46.34
2023-05-24T14:25:32.078Z,47.92
2023-05-24T14:27:59.333Z,48.19
2023-05-24T14:30:26.637Z,48.35
2023-05-24T14:32:53.210Z,48.12
2023-05-24T14:35:19.916Z,48.34
2023-05-24T14:37:46.456Z,48.72
2023-05-24T14:40:13.531Z,48.19
2023-05-24T14:42:41.045Z,48.09
2023-05-24T14:45:08.129Z,49.65
2023-05-24T14:47:34.780Z,48.77
2023-05-24T14:50:51.862Z,50.21
2023-05-24T14:53:18.342Z,50.18
2023-05-24T14:55:45.178Z,49.84
2023-05-24T14:58:12.653Z,49.96
2023-05-24T15:00:40.180Z,50.00
2023-05-24T15:03:07.990Z,49.89
2023-05-24T15:05:35.688Z,50.00
2023-05-24T15:08:02.314Z,51.75
2023-05-24T15:10:29.200Z,53.15
2023-05-24T15:12:55.711Z,52.13
2023-05-24T15:15:22.769Z,48.17
2023-05-24T15:17:49.603Z,49.52
2023-05-24T15:20:16.390Z,49.53
2023-05-24T15:22:43.020Z,51.04
2023-05-24T15:25:10.055Z,46.57
2023-05-24T15:27:36.610Z,49.44
2023-05-24T15:30:03.239Z,48.60
2023-05-24T15:32:29.692Z,49.77
2023-05-24T15:34:56.263Z,51.42
2023-05-24T15:37:22.760Z,50.10
2023-05-24T15:39:49.898Z,51.33
2023-05-24T15:42:16.384Z,51.49
2023-05-24T15:44:42.861Z,51.88
2023-05-24T15:47:09.591Z,51.21
2023-05-24T15:49:36.047Z,49.87
2023-05-24T15:52:04.649Z,50.60
2023-05-24T15:54:32.076Z,52.42
2023-05-24T15:57:00.492Z,50.82
2023-05-24T15:59:27.302Z,52.19
2023-05-24T16:01:54.899Z,53.99
2023-05-24T16:04:21.460Z,52.31
2023-05-24T16:06:47.893Z,52.87
2023-05-24T16:09:14.484Z,51.84
2023-05-24T16:11:44.232Z,50.77
2023-05-24T16:14:10.914Z,51.03
2023-05-24T16:16:37.868Z,50.98
2023-05-24T16:19:04.534Z,53.16
2023-05-24T16:21:32.592Z,51.31
2023-05-24T16:24:01.628Z,51.46
2023-05-24T16:26:30.595Z,50.58
2023-05-24T16:28:57.081Z,51.19
2023-05-24T16:31:23.551Z,52.30
2023-05-24T16:33:50.044Z,52.28
2023-05-24T16:36:16.694Z,51.94
2023-05-24T16:38:43.318Z,53.46
2023-05-24T16:41:09.772Z,52.06
2023-05-24T16:43:36.376Z,50.54
2023-05-24T16:46:02.948Z,51.49
2023-05-24T16:48:31.364Z,51.31
2023-05-24T16:50:58.301Z,51.37
2023-05-24T16:53:26.676Z,53.53
2023-05-24T16:55:54.743Z,52.33
2023-05-24T16:58:22.640Z,51.40
2023-05-24T17:00:50.605Z,51.21
2023-05-24T17:03:17.214Z,50.65
2023-05-24T17:05:45.075Z,51.51
2023-05-24T17:08:11.627Z,53.05
2023-05-24T17:10:38.314Z,53.15
2023-05-24T18:26:13.149Z,55.45
2023-05-24T19:52:06.514Z,70.50
2023-05-24T20:17:20.695Z,76.68
2023-05-24T20:19:14.562Z,74.36
2023-05-24T20:19:47.216Z,73.96
2023-05-24T20:22:16.088Z,75.61
2023-05-24T20:24:42.643Z,74.07
2023-05-24T20:27:09.519Z,75.70
2023-05-24T20:29:36.120Z,76.31
2023-05-24T20:32:02.714Z,76.59
2023-05-24T20:34:29.228Z,75.05
2023-05-24T20:36:55.865Z,75.73
2023-05-24T20:39:22.452Z,75.14
2023-05-24T20:41:49.018Z,76.15
2023-05-24T20:44:15.495Z,73.31
2023-05-24T20:46:42.476Z,73.32
2023-05-24T20:49:08.949Z,72.40
2023-05-24T20:51:36.353Z,71.67
2023-05-24T20:54:04.196Z,71.28
2023-05-24T20:56:30.717Z,71.35
2023-05-24T20:58:59.815Z,71.82
2023-05-24T21:01:26.888Z,71.45
2023-05-24T21:03:53.592Z,70.98
2023-05-24T21:06:20.990Z,70.43
2023-05-24T21:08:47.502Z,71.25
2023-05-24T21:11:14.105Z,72.81
2023-05-24T21:13:41.246Z,71.60
2023-05-24T21:16:08.502Z,72.56
2023-05-24T21:18:34.991Z,72.32
2023-05-24T21:21:01.488Z,70.63
2023-05-24T21:23:28.008Z,71.83
2023-05-24T21:25:54.512Z,70.53
2023-05-24T21:28:21.013Z,70.83
2023-05-24T21:30:47.517Z,70.37
2023-05-24T21:33:14.131Z,70.83
2023-05-24T21:35:40.744Z,71.46
2023-05-24T21:38:07.575Z,71.72
2023-05-24T21:40:34.161Z,70.75
2023-05-24T21:43:00.709Z,71.28
2023-05-24T21:45:27.191Z,72.59
2023-05-24T21:47:53.948Z,72.47
2023-05-24T21:50:20.648Z,72.96
2023-05-24T21:52:47.173Z,72.63
2023-05-24T21:55:13.783Z,73.43
2023-05-24T21:57:40.324Z,73.78
2023-05-24T22:00:08.588Z,74.06
2023-05-24T22:02:35.711Z,75.18
2023-05-24T22:05:02.416Z,75.51
2023-05-24T22:07:28.990Z,75.61
2023-05-24T22:09:55.530Z,75.83
2023-05-24T22:12:22.035Z,75.46
2023-05-24T22:14:48.509Z,75.92
2023-05-24T22:17:16.457Z,76.20
2023-05-24T22:19:42.950Z,77.18
2023-05-24T22:22:09.924Z,77.97
2023-05-24T22:24:36.554Z,77.70
2023-05-24T22:27:03.826Z,77.65
2023-05-24T22:29:30.536Z,79.18
2023-05-24T22:31:57.124Z,79.75
2023-05-24T22:34:28.516Z,80.95
2023-05-24T22:36:55.497Z,80.10
2023-05-24T22:39:22.041Z,80.95
2023-05-24T22:41:48.730Z,81.35
2023-05-24T22:44:15.692Z,82.62
2023-05-24T22:46:42.288Z,82.29
2023-05-24T22:49:13.009Z,82.42
2023-05-24T22:51:44.076Z,81.99
2023-05-24T22:54:13.715Z,81.82
2023-05-24T22:56:40.728Z,82.12
2023-05-24T22:59:07.723Z,83.03
2023-05-24T23:01:34.631Z,82.95
2023-05-24T23:04:11.943Z,82.66
2023-05-24T23:06:46.026Z,83.23
2023-05-24T23:09:13.069Z,82.14
2023-05-24T23:11:39.874Z,82.52
2023-05-24T23:14:08.930Z,82.75
2023-05-24T23:16:45.117Z,84.27
2023-05-24T23:19:13.488Z,84.91
2023-05-24T23:21:42.066Z,85.94
2023-05-24T23:24:14.190Z,86.77
2023-05-24T23:26:42.005Z,86.70
2023-05-24T23:29:08.953Z,86.38
2023-05-24T23:31:35.971Z,87.33
2023-05-24T23:34:02.598Z,86.60
2023-05-24T23:36:29.143Z,86.90
2023-05-24T23:38:55.633Z,86.34
2023-05-24T23:41:22.522Z,87.59
2023-05-24T23:43:49.080Z,87.27
2023-05-24T23:46:17.106Z,89.38
2023-05-24T23:48:43.759Z,88.87
2023-05-24T23:51:10.539Z,90.26
2023-05-24T23:53:37.019Z,90.51
2023-05-24T23:56:03.745Z,90.74
2023-05-24T23:58:30.240Z,90.23
